createdAt,value
2022-12-14T00:02:32.052Z,97290.09
2022-12-14T00:05:37.511Z,97277.25
2022-12-14T00:08:42.064Z,97273.75
2022-12-14T00:11:44.740Z,97266.75
2022-12-14T00:14:47.928Z,97266.63
2022-12-14T00:17:50.933Z,97243.44
2022-12-14T00:20:55.170Z,97230.03
2022-12-14T00:23:59.996Z,97239.88
2022-12-14T00:27:02.917Z,97232.56
2022-12-14T00:30:07.547Z,97232.38
2022-12-14T00:33:10.674Z,97226.81
2022-12-14T00:36:16.068Z,97216.63
2022-12-14T00:39:18.826Z,97228.63
2022-12-14T00:42:22.098Z,97225.66
2022-12-14T00:45:24.891Z,97223.16
2022-12-14T00:48:28.846Z,97218.25
2022-12-14T00:51:33.378Z,97207.53
2022-12-14T00:54:35.991Z,97205.94
2022-12-14T00:57:38.659Z,97208.19
2022-12-14T01:00:41.897Z,97223.22
2022-12-14T01:03:45.645Z,97224.22
2022-12-14T01:06:51.353Z,97223.75
2022-12-14T01:09:53.911Z,97235.03
2022-12-14T01:12:56.452Z,97222.03
2022-12-14T01:16:04.031Z,97223.63
2022-12-14T01:19:07.279Z,97225.66
2022-12-14T01:22:11.600Z,97224.78
2022-12-14T01:25:14.439Z,97213.97
2022-12-14T01:28:17.145Z,97202.78
2022-12-14T01:31:22.464Z,97204.25
2022-12-14T01:34:25.399Z,97205.59
2022-12-14T01:37:30.016Z,97209.53
2022-12-14T01:40:32.650Z,97217.31
2022-12-14T01:43:49.476Z,97225.63
2022-12-14T01:46:54.303Z,97230.47
2022-12-14T01:50:00.379Z,97218.72
2022-12-14T01:53:07.398Z,97214.94
2022-12-14T01:56:10.489Z,97203.34
2022-12-14T01:59:15.731Z,97196.56
2022-12-14T02:02:19.784Z,97183.59
2022-12-14T02:05:23.783Z,97170.97
2022-12-14T02:08:27.759Z,97171.25
2022-12-14T02:11:35.054Z,97180.09
2022-12-14T02:14:38.749Z,97164.81
2022-12-14T02:17:43.353Z,97170.69
2022-12-14T02:20:57.401Z,97182.50
2022-12-14T02:24:24.735Z,97173.88
2022-12-14T02:27:42.475Z,97165.84
2022-12-14T02:30:52.564Z,97157.06
2022-12-14T02:33:59.012Z,97153.06
2022-12-14T02:37:06.382Z,97157.28
2022-12-14T02:40:20.330Z,97174.53
2022-12-14T02:43:28.350Z,97153.50
2022-12-14T02:46:39.603Z,97158.88
2022-12-14T02:49:54.482Z,97145.41
2022-12-14T02:53:02.711Z,97143.66
2022-12-14T02:56:09.810Z,97149.97
2022-12-14T02:59:13.085Z,97143.94
2022-12-14T03:02:17.941Z,97137.25
2022-12-14T03:05:22.979Z,97133.22
2022-12-14T03:08:27.600Z,97127.75
2022-12-14T03:11:34.408Z,97128.50
2022-12-14T03:14:39.916Z,97127.34
2022-12-14T03:17:46.276Z,97121.88
2022-12-14T03:20:53.539Z,97122.66
2022-12-14T03:23:57.020Z,97119.72
2022-12-14T03:27:02.794Z,97114.47
2022-12-14T03:30:08.692Z,97117.28
2022-12-14T03:33:16.208Z,97117.53
2022-12-14T03:36:23.162Z,97111.81
2022-12-14T03:39:29.092Z,97112.38
2022-12-14T03:42:34.463Z,97106.03
2022-12-14T03:45:42.360Z,97099.66
2022-12-14T03:48:49.636Z,97095.31
2022-12-14T03:51:58.008Z,97082.75
2022-12-14T03:55:11.004Z,97082.13
2022-12-14T03:58:28.440Z,97079.09
2022-12-14T04:01:40.648Z,97082.41
2022-12-14T04:04:49.204Z,97073.06
2022-12-14T04:07:57.137Z,97067.47
2022-12-14T04:11:19.852Z,97067.91
2022-12-14T04:14:42.518Z,97056.00
2022-12-14T04:18:04.585Z,97046.31
2022-12-14T04:21:13.980Z,97041.66
2022-12-14T04:24:42.050Z,97047.41
2022-12-14T04:27:49.635Z,97034.41
2022-12-14T04:30:51.430Z,97033.25
2022-12-14T04:33:56.091Z,97031.06
2022-12-14T04:37:02.125Z,97019.53
2022-12-14T04:40:07.918Z,97017.66
2022-12-14T04:43:14.413Z,97004.47
2022-12-14T04:46:19.343Z,97019.91
2022-12-14T04:49:25.155Z,97018.97
2022-12-14T04:52:33.057Z,97024.34
2022-12-14T04:55:38.234Z,97020.97
2022-12-14T04:58:41.703Z,97015.53
2022-12-14T05:01:49.942Z,97009.28
2022-12-14T05:04:58.325Z,97000.94
2022-12-14T05:08:09.773Z,97002.84
2022-12-14T05:11:50.116Z,97004.22
2022-12-14T05:14:44.376Z,96998.56
2022-12-14T05:17:47.370Z,96997.97
2022-12-14T05:20:50.318Z,96988.00
2022-12-14T05:23:54.492Z,96989.34
2022-12-14T05:26:57.231Z,96992.09
2022-12-14T05:30:00.209Z,96990.81
2022-12-14T05:33:03.244Z,96988.91
2022-12-14T05:36:06.518Z,96983.09
2022-12-14T05:39:10.517Z,96981.66
2022-12-14T05:42:13.177Z,96978.28
2022-12-14T05:45:16.072Z,96988.06
2022-12-14T05:48:18.709Z,96978.50
2022-12-14T05:51:21.319Z,96980.09
2022-12-14T05:54:25.262Z,96966.97
2022-12-14T05:57:27.744Z,96962.56
2022-12-14T06:00:30.356Z,96949.44
2022-12-14T06:03:33.088Z,96947.78
2022-12-14T06:06:35.850Z,96944.28
2022-12-14T06:09:40.069Z,96941.84
2022-12-14T06:12:43.545Z,96933.03
2022-12-14T06:15:46.234Z,96952.25
2022-12-14T06:18:51.131Z,96937.81
2022-12-14T06:21:53.766Z,96931.94
2022-12-14T06:24:57.965Z,96941.41
2022-12-14T06:28:00.826Z,96949.47
2022-12-14T06:31:03.985Z,96948.84
2022-12-14T06:34:06.738Z,96953.41
2022-12-14T06:37:09.411Z,96955.00
2022-12-14T06:40:13.857Z,96943.88
2022-12-14T06:43:16.561Z,96928.47
2022-12-14T06:46:21.224Z,96935.63
2022-12-14T06:49:23.893Z,96923.56
2022-12-14T06:52:27.363Z,96921.88
2022-12-14T06:55:32.092Z,96912.13
2022-12-14T06:58:34.804Z,96910.06
2022-12-14T07:01:38.331Z,96909.59
2022-12-14T07:04:42.977Z,96897.66
2022-12-14T07:07:45.873Z,96901.91
2022-12-14T07:10:49.904Z,96902.38
2022-12-14T07:13:52.651Z,96893.94
2022-12-14T07:16:55.392Z,96901.19
2022-12-14T07:19:58.091Z,96889.34
2022-12-14T07:23:00.818Z,96870.47
2022-12-14T07:26:06.999Z,96864.13
2022-12-14T07:29:12.006Z,96879.44
2022-12-14T07:32:15.605Z,96873.88
2022-12-14T07:35:18.439Z,96870.66
2022-12-14T07:38:21.134Z,96883.22
2022-12-14T07:41:26.850Z,96883.03
2022-12-14T07:44:29.399Z,96867.16
2022-12-14T07:47:32.251Z,96865.34
2022-12-14T07:50:35.582Z,96852.69
2022-12-14T07:53:39.385Z,96860.75
2022-12-14T07:56:43.983Z,96854.41
2022-12-14T07:59:46.608Z,96853.59
2022-12-14T08:02:49.477Z,96835.50
2022-12-14T08:05:52.651Z,96847.81
2022-12-14T08:08:55.801Z,96839.66
2022-12-14T08:12:00.274Z,96832.06
2022-12-14T08:15:03.136Z,96835.44
2022-12-14T08:18:05.772Z,96842.16
2022-12-14T08:21:09.382Z,96837.13
2022-12-14T08:24:12.669Z,96833.22
2022-12-14T08:27:16.861Z,96834.09
2022-12-14T08:30:19.496Z,96826.09
2022-12-14T08:33:23.251Z,96811.91
2022-12-14T08:36:28.061Z,96837.53
2022-12-14T08:39:30.729Z,96844.47
2022-12-14T08:42:34.938Z,96846.44
2022-12-14T08:45:37.538Z,96852.03
2022-12-14T08:48:40.187Z,96856.22
2022-12-14T08:51:43.087Z,96848.25
2022-12-14T08:54:45.731Z,96847.59
2022-12-14T08:57:50.017Z,96844.16
2022-12-14T09:01:01.442Z,96834.16
2022-12-14T09:04:05.626Z,96844.47
2022-12-14T09:07:08.339Z,96839.63
2022-12-14T09:10:11.392Z,96840.78
2022-12-14T09:13:15.789Z,96835.50
2022-12-14T09:16:20.589Z,96840.28
2022-12-14T09:19:23.511Z,96841.00
2022-12-14T09:22:27.173Z,96840.34
2022-12-14T09:25:29.813Z,96846.56
2022-12-14T09:28:36.933Z,96837.47
2022-12-14T09:31:39.559Z,96825.97
2022-12-14T09:34:42.339Z,96822.63
2022-12-14T09:37:45.105Z,96827.31
2022-12-14T09:40:57.373Z,96818.31
2022-12-14T09:44:09.626Z,96806.09
2022-12-14T09:47:19.172Z,96820.47
2022-12-14T09:50:22.876Z,96812.06
2022-12-14T09:53:26.310Z,96825.00
2022-12-14T09:56:29.035Z,96810.06
2022-12-14T09:59:33.966Z,96810.03
2022-12-14T10:02:44.047Z,96805.19
2022-12-14T10:05:59.579Z,96808.75
2022-12-14T10:09:10.259Z,96812.09
2022-12-14T10:12:21.412Z,96815.38
2022-12-14T10:15:29.955Z,96808.06
2022-12-14T10:19:02.619Z,96806.22
2022-12-14T10:22:12.230Z,96806.72
2022-12-14T10:25:16.845Z,96805.91
2022-12-14T10:28:21.934Z,96803.72
2022-12-14T10:31:31.821Z,96798.53
2022-12-14T10:34:35.857Z,96795.63
2022-12-14T10:37:38.655Z,96794.47
2022-12-14T10:40:49.432Z,96797.16
2022-12-14T10:43:57.415Z,96793.03
2022-12-14T10:47:05.447Z,96784.25
2022-12-14T10:50:18.769Z,96780.00
2022-12-14T10:53:25.091Z,96775.28
2022-12-14T10:56:31.650Z,96768.91
2022-12-14T10:59:40.638Z,96771.09
2022-12-14T11:02:52.001Z,96772.91
2022-12-14T11:05:59.414Z,96772.63
2022-12-14T11:09:02.318Z,96777.88
2022-12-14T11:12:07.762Z,96781.06
2022-12-14T11:15:25.375Z,96769.00
2022-12-14T11:18:32.199Z,96767.06
2022-12-14T11:21:37.293Z,96771.22
2022-12-14T11:24:47.755Z,96767.88
2022-12-14T11:27:50.749Z,96772.44
2022-12-14T11:30:56.904Z,96778.78
2022-12-14T11:34:02.357Z,96771.50
2022-12-14T11:37:15.832Z,96775.59
2022-12-14T11:40:25.138Z,96776.59
2022-12-14T11:43:29.490Z,96771.72
2022-12-14T11:46:44.982Z,96762.97
2022-12-14T11:49:51.279Z,96762.50
2022-12-14T11:53:11.025Z,96757.31
2022-12-14T11:56:17.042Z,96768.66
2022-12-14T11:59:20.394Z,96758.38
2022-12-14T12:02:28.549Z,96751.13
2022-12-14T12:05:34.805Z,96748.06
2022-12-14T12:08:39.070Z,96746.16
2022-12-14T12:11:46.138Z,96753.31
2022-12-14T12:14:55.652Z,96758.44
2022-12-14T12:18:02.685Z,96771.78
2022-12-14T12:21:11.239Z,96772.38
2022-12-14T12:24:18.165Z,96771.88
2022-12-14T12:27:21.412Z,96771.53
2022-12-14T12:30:28.699Z,96769.63
2022-12-14T12:33:36.294Z,96768.00
2022-12-14T12:36:56.857Z,96771.81
2022-12-14T12:40:06.271Z,96777.84
2022-12-14T12:43:14.445Z,96776.94
2022-12-14T12:46:19.799Z,96779.31
2022-12-14T12:49:23.304Z,96776.69
2022-12-14T12:52:30.507Z,96779.28
2022-12-14T12:55:37.422Z,96782.91
2022-12-14T12:58:40.749Z,96786.50
2022-12-14T13:01:46.076Z,96793.75
2022-12-14T13:04:52.840Z,96791.25
2022-12-14T13:07:59.735Z,96794.13
2022-12-14T13:14:31.205Z,96810.00
2022-12-14T13:17:39.373Z,96812.31
2022-12-14T13:20:42.110Z,96814.13
2022-12-14T13:23:46.256Z,96805.81
2022-12-14T13:27:15.297Z,96804.25
2022-12-14T13:30:29.668Z,96807.84
2022-12-14T13:33:50.886Z,96800.47
2022-12-14T13:37:16.339Z,96800.28
2022-12-14T13:40:54.774Z,96804.19
2022-12-14T13:44:14.237Z,96807.00
2022-12-14T13:47:23.409Z,96807.09
2022-12-14T13:50:41.900Z,96821.69
2022-12-14T13:53:55.093Z,96821.41
2022-12-14T13:57:05.823Z,96823.38
2022-12-14T14:00:37.797Z,96831.19
2022-12-14T14:03:46.099Z,96839.41
2022-12-14T14:06:50.436Z,96848.72
2022-12-14T14:10:01.700Z,96845.78
2022-12-14T14:13:44.855Z,96857.78
2022-12-14T14:16:57.579Z,96856.88
2022-12-14T14:20:01.779Z,96865.09
2022-12-14T14:23:30.234Z,96862.69
2022-12-14T14:26:34.778Z,96872.50
2022-12-14T14:29:38.196Z,96865.72
2022-12-14T14:32:43.414Z,96868.13
2022-12-14T14:35:49.728Z,96874.69
2022-12-14T14:38:53.345Z,96882.94
2022-12-14T14:41:56.607Z,96884.16
2022-12-14T14:45:01.367Z,96892.00
2022-12-14T14:48:11.698Z,96902.53
2022-12-14T14:51:20.954Z,96901.66
2022-12-14T14:57:57.872Z,96920.06
2022-12-14T15:01:19.441Z,96925.84
2022-12-14T15:04:24.363Z,96942.34
2022-12-14T15:07:30.246Z,96959.09
2022-12-14T15:10:36.374Z,96951.31
2022-12-14T15:13:46.624Z,96964.31
2022-12-14T15:16:49.280Z,96967.09
2022-12-14T15:19:54.881Z,96966.78
2022-12-14T15:22:58.406Z,96973.72
2022-12-14T15:26:03.169Z,96982.53
2022-12-14T15:29:06.336Z,96989.81
2022-12-14T15:32:16.147Z,97014.06
2022-12-14T15:35:24.683Z,97015.03
2022-12-14T15:38:31.028Z,97016.63
2022-12-14T15:41:34.570Z,97023.22
2022-12-14T15:44:37.411Z,97026.03
2022-12-14T15:47:40.179Z,97034.38
2022-12-14T15:50:45.737Z,97024.69
2022-12-14T15:53:50.875Z,97029.81
2022-12-14T15:56:57.097Z,97035.53
2022-12-14T16:00:00.052Z,97048.53
2022-12-14T16:03:06.157Z,97057.56
2022-12-14T16:06:11.083Z,97051.09
2022-12-14T16:09:20.269Z,97052.03
2022-12-14T16:12:26.199Z,97049.78
2022-12-14T16:15:30.132Z,97063.00
2022-12-14T16:18:32.605Z,97067.56
2022-12-14T16:21:37.417Z,97063.47
2022-12-14T16:24:54.000Z,97072.34
2022-12-14T16:27:57.395Z,97069.81
2022-12-14T16:31:02.793Z,97075.47
2022-12-14T16:34:09.440Z,97079.38
2022-12-14T16:37:34.034Z,97072.34
2022-12-14T16:40:39.008Z,97077.56
2022-12-14T16:43:42.969Z,97083.41
2022-12-14T16:46:46.690Z,97099.19
2022-12-14T16:49:55.971Z,97098.53
2022-12-14T16:53:16.289Z,97098.16
2022-12-14T16:56:20.641Z,97097.53
2022-12-14T16:59:24.787Z,97102.16
2022-12-14T17:02:31.107Z,97102.38
2022-12-14T17:05:36.092Z,97109.13
2022-12-14T17:08:40.675Z,97114.06
2022-12-14T17:11:43.508Z,97117.97
2022-12-14T17:14:49.872Z,97118.13
2022-12-14T17:17:55.016Z,97130.59
2022-12-14T17:20:57.945Z,97135.41
2022-12-14T17:24:02.196Z,97138.94
2022-12-14T17:27:05.257Z,97138.28
2022-12-14T17:30:09.143Z,97136.25
2022-12-14T17:33:11.582Z,97142.41
2022-12-14T17:36:14.490Z,97132.34
2022-12-14T17:39:18.680Z,97135.31
2022-12-14T17:42:22.938Z,97135.84
2022-12-14T17:45:27.351Z,97130.75
2022-12-14T17:48:29.994Z,97138.50
2022-12-14T17:51:33.008Z,97145.66
2022-12-14T17:54:37.006Z,97151.03
2022-12-14T17:57:39.871Z,97158.03
2022-12-14T18:01:01.122Z,97143.28
2022-12-14T18:04:04.133Z,97156.88
2022-12-14T18:07:07.040Z,97163.75
2022-12-14T18:10:14.863Z,97158.94
2022-12-14T18:13:17.533Z,97161.63
2022-12-14T18:16:22.096Z,97168.91
2022-12-14T18:19:25.045Z,97171.75
2022-12-14T18:22:27.958Z,97176.16
2022-12-14T18:25:33.833Z,97189.16
2022-12-14T18:28:37.573Z,97184.78
2022-12-14T18:31:40.461Z,97175.06
2022-12-14T18:34:43.245Z,97177.81
2022-12-14T18:37:49.481Z,97173.06
2022-12-14T18:40:55.168Z,97172.53
2022-12-14T18:43:57.889Z,97170.34
2022-12-14T18:47:20.493Z,97178.03
2022-12-14T18:50:24.354Z,97177.50
2022-12-14T18:53:27.392Z,97178.91
2022-12-14T18:56:31.579Z,97189.34
2022-12-14T18:59:37.819Z,97195.97
2022-12-14T19:02:46.965Z,97191.84
2022-12-14T19:05:53.197Z,97200.22
2022-12-14T19:08:56.995Z,97206.91
2022-12-14T19:12:00.873Z,97206.56
2022-12-14T19:15:03.813Z,97213.31
2022-12-14T19:18:06.595Z,97207.19
2022-12-14T19:21:09.129Z,97211.25
2022-12-14T19:24:13.623Z,97218.09
2022-12-14T19:27:30.296Z,97215.84
2022-12-14T19:30:40.851Z,97216.63
2022-12-14T19:33:43.541Z,97214.25
2022-12-14T19:36:46.362Z,97221.44
2022-12-14T19:39:49.109Z,97224.81
2022-12-14T19:42:53.046Z,97216.81
2022-12-14T19:45:55.796Z,97216.72
2022-12-14T19:48:59.853Z,97231.19
2022-12-14T19:52:02.469Z,97229.44
2022-12-14T19:55:05.704Z,97234.47
2022-12-14T19:58:09.642Z,97226.66
2022-12-14T20:01:13.532Z,97230.25
2022-12-14T20:04:16.295Z,97241.88
2022-12-14T20:07:19.284Z,97243.31
2022-12-14T20:10:22.056Z,97234.22
2022-12-14T20:13:28.493Z,97243.59
2022-12-14T20:16:31.301Z,97236.31
2022-12-14T20:19:34.074Z,97248.84
2022-12-14T20:22:36.911Z,97252.41
2022-12-14T20:25:39.515Z,97256.56
2022-12-14T20:28:43.755Z,97265.06
2022-12-14T20:31:46.642Z,97259.59
2022-12-14T20:34:49.744Z,97263.69
2022-12-14T20:37:53.727Z,97265.28
2022-12-14T20:40:56.639Z,97264.44
2022-12-14T20:44:02.097Z,97263.81
2022-12-14T20:47:05.054Z,97272.81
2022-12-14T20:50:08.176Z,97269.84
2022-12-14T20:53:11.067Z,97269.84
2022-12-14T20:56:14.227Z,97271.72
2022-12-14T20:59:18.646Z,97274.94
2022-12-14T21:02:21.709Z,97274.66
2022-12-14T21:05:24.819Z,97282.25
2022-12-14T21:08:27.853Z,97284.25
2022-12-14T21:11:48.451Z,97276.75
2022-12-14T21:14:55.402Z,97281.72
2022-12-14T21:17:58.252Z,97275.75
2022-12-14T21:21:05.686Z,97275.34
2022-12-14T21:24:09.714Z,97269.50
2022-12-14T21:27:17.023Z,97272.13
2022-12-14T21:30:21.341Z,97275.81
2022-12-14T21:33:24.006Z,97277.66
2022-12-14T21:36:26.653Z,97281.13
2022-12-14T21:39:29.203Z,97288.59
2022-12-14T21:42:33.631Z,97294.25
2022-12-14T21:45:37.952Z,97296.19
2022-12-14T21:48:41.394Z,97295.56
2022-12-14T21:51:44.397Z,97296.34
2022-12-14T21:54:47.081Z,97298.50
2022-12-14T21:58:07.471Z,97298.75
2022-12-14T22:01:11.567Z,97290.53
2022-12-14T22:04:14.168Z,97297.50
2022-12-14T22:07:17.739Z,97298.84
2022-12-14T22:10:24.888Z,97298.25
2022-12-14T22:13:29.130Z,97306.28
2022-12-14T22:16:35.271Z,97310.31
2022-12-14T22:19:38.293Z,97304.69
2022-12-14T22:22:41.149Z,97306.50
2022-12-14T22:25:50.071Z,97303.81
2022-12-14T22:28:53.372Z,97310.88
2022-12-14T22:31:57.739Z,97307.78
2022-12-14T22:35:01.555Z,97300.97
2022-12-14T22:38:06.687Z,97299.44
2022-12-14T22:41:09.603Z,97297.97
2022-12-14T22:44:13.510Z,97304.53
2022-12-14T22:47:17.494Z,97298.50
2022-12-14T22:50:20.834Z,97294.94
2022-12-14T22:53:23.679Z,97294.41
2022-12-14T22:56:29.335Z,97302.25
2022-12-14T22:59:37.761Z,97307.84
2022-12-14T23:02:47.601Z,97308.97
2022-12-14T23:05:51.240Z,97307.91
2022-12-14T23:09:11.386Z,97316.44
2022-12-14T23:12:31.452Z,97314.53
2022-12-14T23:15:52.003Z,97322.31
2022-12-14T23:19:13.762Z,97326.63
2022-12-14T23:22:34.047Z,97319.03
2022-12-14T23:25:54.330Z,97323.22
2022-12-14T23:29:14.803Z,97326.53
2022-12-14T23:32:35.277Z,97332.00
2022-12-14T23:35:56.719Z,97336.47
2022-12-14T23:39:17.200Z,97323.91
2022-12-14T23:42:37.423Z,97325.22
2022-12-14T23:45:57.875Z,97316.34
2022-12-14T23:49:18.277Z,97331.66
2022-12-14T23:52:39.805Z,97316.94
2022-12-14T23:56:00.205Z,97314.19
2022-12-14T23:59:22.708Z,97321.72
